Time;durP1;ratioP1;P1;durP2;ratioP2;P2;SDS_P1;SDS_P2;PMS_P1;PMS_P2;Temp;Humidity;BMP_temperature;BMP_pressure;BME280_temperature;BME280_humidity;BME280_pressure;Samples;Min_cycle;Max_cycle;Signal;HPM_P1;HPM_P2
2023/07/12 00:01:09;;;;;;;;;11.50;9.25;;;;;26.80;53.56;98922.25;5054284;28;45527;-62
2023/07/12 00:03:34;;;;;;;;;12.80;11.80;;;;;26.75;53.78;98911.09;5053165;28;45480;-62
2023/07/12 00:06:00;;;;;;;;;15.50;13.00;;;;;26.70;53.85;98917.00;5055633;28;45381;-62
2023/07/12 00:08:31;;;;;;;;;12.75;12.75;;;;;26.70;53.28;98927.81;5054485;28;45663;-62
2023/07/12 00:10:58;;;;;;;;;14.00;11.00;;;;;26.71;53.27;98923.25;5056120;28;45453;-62
2023/07/12 00:13:24;;;;;;;;;16.25;13.50;;;;;26.70;53.67;98922.41;5033934;28;45539;-62
2023/07/12 00:15:51;;;;;;;;;16.00;15.00;;;;;26.66;53.87;98921.03;5038276;28;45426;-62
2023/07/12 00:18:24;;;;;;;;;18.50;17.00;;;;;26.63;53.99;98915.16;5054327;28;45377;-61
2023/07/12 00:20:51;;;;;;;;;20.50;17.50;;;;;26.58;53.97;98906.69;5055162;28;45468;-62
2023/07/12 00:23:17;;;;;;;;;21.25;16.25;;;;;26.55;54.01;98905.16;5052484;28;45477;-62
2023/07/12 00:25:45;;;;;;;;;17.50;16.50;;;;;26.57;54.00;98900.44;5056024;28;45408;-61
2023/07/12 00:28:22;;;;;;;;;20.75;17.25;;;;;26.56;54.35;98887.06;5054517;28;45503;-62
2023/07/12 00:30:48;;;;;;;;;26.25;21.75;;;;;26.54;54.36;98873.72;5063262;28;45445;-62
2023/07/12 00:33:13;;;;;;;;;30.25;22.00;;;;;26.51;54.31;98878.63;5053660;28;45479;-62
2023/07/12 00:35:41;;;;;;;;;24.25;20.75;;;;;26.50;54.16;98894.00;5053821;28;45572;-61
2023/07/12 00:38:22;;;;;;;;;33.25;29.00;;;;;26.48;54.04;98903.31;5054769;28;45386;-61
2023/07/12 00:41:19;;;;;;;;;28.00;23.00;;;;;26.46;54.68;98910.75;5052007;28;45545;-62
2023/07/12 00:43:53;;;;;;;;;35.75;28.75;;;;;26.40;54.21;98901.44;5044774;28;46002;-61
2023/07/12 00:46:24;;;;;;;;;28.67;26.33;;;;;26.31;55.14;98887.03;5047560;28;45427;-62
2023/07/12 00:48:50;;;;;;;;;34.75;27.75;;;;;26.25;55.00;98894.97;5049790;28;45588;-61
2023/07/12 00:51:37;;;;;;;;;37.33;29.33;;;;;26.22;54.93;98900.69;5055123;28;45491;-61
2023/07/12 00:54:15;;;;;;;;;37.00;33.00;;;;;26.17;55.39;98900.34;5051595;28;45498;-61
2023/07/12 00:56:40;;;;;;;;;40.00;34.33;;;;;26.12;56.04;98910.81;5069302;28;46113;-62
2023/07/12 00:59:09;;;;;;;;;41.00;33.33;;;;;26.07;56.40;98897.78;5035167;28;45339;-62
2023/07/12 01:01:36;;;;;;;;;41.00;32.33;;;;;25.99;56.13;98917.50;5043835;28;45488;-62
2023/07/12 01:04:03;;;;;;;;;35.67;31.67;;;;;25.93;56.16;98896.56;5052343;28;45557;-62
2023/07/12 01:06:29;;;;;;;;;30.25;29.00;;;;;25.89;56.08;98889.81;5050922;28;45555;-62
2023/07/12 01:09:03;;;;;;;;;41.67;32.00;;;;;25.88;56.19;98880.00;5053340;28;45397;-62
2023/07/12 01:11:29;;;;;;;;;39.67;31.00;;;;;25.85;56.07;98888.44;5055318;28;45358;-62
2023/07/12 01:13:54;;;;;;;;;30.33;30.00;;;;;25.83;56.77;98873.41;5045805;28;45488;-62
2023/07/12 01:16:22;;;;;;;;;31.67;29.67;;;;;25.82;57.05;98874.41;5055298;28;45398;-62
2023/07/12 01:18:48;;;;;;;;;17.50;9.75;;;;;25.78;56.85;98864.97;5052172;28;45448;-62
2023/07/12 01:21:17;;;;;;;;;23.25;20.75;;;;;25.77;56.69;98852.47;5055295;28;45390;-62
2023/07/12 01:23:44;;;;;;;;;25.00;22.75;;;;;25.75;56.88;98858.03;5050286;28;46575;-62
2023/07/12 01:26:24;;;;;;;;;24.75;23.25;;;;;25.72;57.17;98859.19;5054874;28;45484;-62
2023/07/12 01:28:53;;;;;;;;;23.75;17.75;;;;;25.70;57.36;98846.88;5051330;28;45891;-63
2023/07/12 01:31:19;;;;;;;;;13.50;13.25;;;;;25.67;57.38;98847.19;5055049;28;45537;-62
2023/07/12 01:33:44;;;;;;;;;19.25;15.00;;;;;25.65;57.19;98855.44;5033946;28;45673;-61
2023/07/12 01:36:10;;;;;;;;;25.00;17.25;;;;;25.62;57.43;98888.19;5055008;28;45377;-61
2023/07/12 01:38:35;;;;;;;;;19.50;17.25;;;;;25.58;58.17;98903.00;5035084;28;45458;-62
2023/07/12 01:41:01;;;;;;;;;20.00;17.00;;;;;25.55;58.25;98897.06;5053919;28;45501;-62
2023/07/12 01:43:27;;;;;;;;;20.50;18.50;;;;;25.54;58.23;98895.38;5052600;28;45475;-62
2023/07/12 01:45:53;;;;;;;;;20.25;20.00;;;;;25.51;58.11;98901.09;5053940;28;45476;-62
2023/07/12 01:48:18;;;;;;;;;24.75;20.50;;;;;25.50;57.91;98911.03;5051356;28;45405;-62
2023/07/12 01:50:43;;;;;;;;;25.00;20.25;;;;;25.51;57.97;98922.69;5053460;28;45372;-63
2023/07/12 01:53:09;;;;;;;;;20.00;18.25;;;;;25.50;58.40;98912.88;5052394;28;45584;-63
2023/07/12 01:55:35;;;;;;;;;21.50;18.00;;;;;25.52;58.20;98903.63;5053354;28;45475;-61
2023/07/12 01:58:00;;;;;;;;;21.00;18.00;;;;;25.55;58.16;98910.56;5052033;28;45680;-61
2023/07/12 02:00:26;;;;;;;;;20.25;14.75;;;;;25.56;58.11;98907.72;5047744;28;45626;-60
2023/07/12 02:02:51;;;;;;;;;15.00;13.00;;;;;25.58;57.82;98892.19;5050530;28;45460;-60
2023/07/12 02:05:18;;;;;;;;;13.50;12.00;;;;;25.62;57.55;98904.41;5045460;28;45453;-61
2023/07/12 02:07:44;;;;;;;;;11.50;10.75;;;;;25.67;57.42;98907.44;5054744;28;46300;-60
2023/07/12 02:13:49;;;;;;;;;13.75;13.25;;;;;25.75;57.02;98928.25;5051466;28;45782;-60
2023/07/12 02:16:15;;;;;;;;;11.40;11.40;;;;;25.82;56.69;98941.94;5047753;28;45480;-60
2023/07/12 02:18:40;;;;;;;;;12.25;12.00;;;;;25.87;56.25;98931.50;5049666;28;45368;-60
2023/07/12 02:21:05;;;;;;;;;12.25;12.00;;;;;25.94;56.23;98933.38;5052557;28;45401;-61
2023/07/12 02:23:31;;;;;;;;;10.75;9.50;;;;;25.98;56.01;98912.28;5051299;28;46439;-60
2023/07/12 02:25:56;;;;;;;;;13.00;12.00;;;;;26.02;55.71;98910.94;5041081;28;45532;-60
2023/07/12 02:28:21;;;;;;;;;13.75;11.50;;;;;26.06;55.61;98917.72;5051017;28;45675;-60
2023/07/12 02:30:47;;;;;;;;;14.50;11.50;;;;;26.12;55.24;98944.09;5049978;28;45427;-60
2023/07/12 02:33:13;;;;;;;;;20.50;17.00;;;;;26.18;55.55;98943.41;5051835;28;46214;-61
2023/07/12 02:35:41;;;;;;;;;23.50;19.75;;;;;26.22;55.78;98950.19;5048505;28;45425;-61
2023/07/12 02:38:07;;;;;;;;;21.50;17.75;;;;;26.28;55.59;98954.09;5052445;28;45562;-61
2023/07/12 02:40:33;;;;;;;;;24.00;21.00;;;;;26.33;55.47;98967.97;5049921;28;45365;-61
2023/07/12 02:42:58;;;;;;;;;14.50;11.00;;;;;26.36;54.84;98983.88;5052718;28;46383;-61
2023/07/12 02:45:24;;;;;;;;;19.25;16.75;;;;;26.35;55.15;98990.28;5048719;28;45566;-61
2023/07/12 02:47:49;;;;;;;;;15.25;14.25;;;;;26.35;55.22;98998.38;5053054;28;45386;-61
2023/07/12 02:50:15;;;;;;;;;14.00;11.50;;;;;26.34;54.96;98996.69;5050409;28;45512;-61
2023/07/12 02:52:40;;;;;;;;;15.00;11.25;;;;;26.36;54.83;99006.34;5053803;28;46505;-61
2023/07/12 02:55:06;;;;;;;;;19.00;16.00;;;;;26.41;55.11;99028.34;5051175;28;45436;-61
2023/07/12 02:57:32;;;;;;;;;13.25;11.50;;;;;26.42;54.71;99024.63;5053861;28;45488;-62
2023/07/12 02:59:57;;;;;;;;;18.50;16.75;;;;;26.46;55.07;98992.69;5031647;28;45460;-61
2023/07/12 03:02:23;;;;;;;;;19.75;15.75;;;;;26.50;54.95;99021.06;5053216;28;46056;-61
2023/07/12 03:04:48;;;;;;;;;21.00;16.25;;;;;26.54;55.55;98992.69;5051492;28;45503;-61
2023/07/12 03:07:13;;;;;;;;;20.25;15.75;;;;;26.58;56.08;98996.78;5053731;28;46133;-61
2023/07/12 03:09:39;;;;;;;;;21.25;17.75;;;;;26.60;56.71;99002.88;5047146;28;45453;-61
2023/07/12 03:12:05;;;;;;;;;19.00;15.50;;;;;26.61;57.62;98987.47;5051102;28;46590;-61
2023/07/12 03:14:30;;;;;;;;;12.80;9.80;;;;;26.58;57.23;98896.72;5047945;28;45442;-61
2023/07/12 03:16:56;;;;;;;;;17.75;12.50;;;;;26.52;57.56;98875.75;5053377;28;45375;-61
2023/07/12 03:19:22;;;;;;;;;19.00;17.00;;;;;26.42;58.67;98958.88;5046673;28;45546;-61
2023/07/12 03:21:48;;;;;;;;;17.25;14.00;;;;;26.36;59.24;99006.34;5053313;28;46240;-62
2023/07/12 03:24:13;;;;;;;;;20.00;18.25;;;;;26.33;59.70;98995.00;5047057;28;45455;-62
2023/07/12 03:26:39;;;;;;;;;21.25;17.25;;;;;26.28;59.58;99008.16;5056163;28;45371;-61
2023/07/12 03:29:04;;;;;;;;;20.25;17.00;;;;;26.26;59.90;99004.75;5049581;28;45452;-61
2023/07/12 03:31:30;;;;;;;;;15.75;14.25;;;;;26.20;59.73;98978.38;5056533;28;46438;-62
2023/07/12 03:33:57;;;;;;;;;17.80;15.00;;;;;26.18;59.62;98953.38;5049900;28;45436;-61
2023/07/12 03:36:26;;;;;;;;;13.25;11.75;;;;;26.13;59.62;98972.81;5056500;28;45493;-61
2023/07/12 03:38:52;;;;;;;;;23.25;15.75;;;;;26.10;59.85;98978.53;5050937;28;45537;-61
2023/07/12 03:41:20;;;;;;;;;19.75;17.00;;;;;26.12;59.26;98971.13;5056194;28;46551;-62
2023/07/12 03:43:46;;;;;;;;;19.20;16.00;;;;;26.11;59.84;98950.50;5052142;28;45455;-62
2023/07/12 03:46:11;;;;;;;;;15.50;12.50;;;;;26.09;59.80;98928.19;5052034;28;45418;-61
2023/07/12 03:48:37;;;;;;;;;16.25;14.25;;;;;26.09;59.99;98920.09;5051172;28;45603;-62
2023/07/12 03:51:02;;;;;;;;;19.00;17.25;;;;;26.09;59.96;98906.59;5056052;28;45456;-61
2023/07/12 03:53:28;;;;;;;;;18.75;18.00;;;;;26.08;60.01;98903.03;5052957;28;45541;-61
2023/07/12 03:55:58;;;;;;;;;18.00;15.50;;;;;26.07;59.77;98887.84;5056219;28;45876;-62
2023/07/12 03:58:26;;;;;;;;;18.25;15.00;;;;;26.07;59.78;98878.88;5053689;28;45337;-61
2023/07/12 04:00:52;;;;;;;;;20.00;17.75;;;;;26.05;59.94;98916.88;5055961;28;46586;-61
2023/07/12 04:03:18;;;;;;;;;21.25;19.00;;;;;26.04;60.45;98949.44;5053582;28;45563;-61
2023/07/12 04:05:48;;;;;;;;;21.25;17.50;;;;;26.03;60.45;98940.50;5042215;28;45424;-61
2023/07/12 04:08:13;;;;;;;;;20.00;15.00;;;;;26.04;60.40;98911.63;5053366;28;45530;-61
2023/07/12 04:10:39;;;;;;;;;18.75;17.00;;;;;26.00;60.61;98908.41;5055630;28;46263;-62
2023/07/12 04:13:04;;;;;;;;;18.75;15.50;;;;;25.96;61.12;98917.88;5054919;28;45403;-61
2023/07/12 04:15:30;;;;;;;;;18.75;16.75;;;;;25.93;61.53;98930.84;5051197;28;45457;-61
2023/07/12 04:17:56;;;;;;;;;20.75;18.25;;;;;25.91;61.32;98932.88;5054105;28;45493;-61
2023/07/12 04:20:21;;;;;;;;;18.00;16.75;;;;;25.87;61.21;98934.19;5033730;28;46781;-61
2023/07/12 04:22:51;;;;;;;;;20.75;16.50;;;;;25.84;61.38;98929.09;5054992;28;45539;-61
2023/07/12 04:25:16;;;;;;;;;16.50;14.50;;;;;25.81;61.75;98918.63;5052858;28;45636;-61
2023/07/12 04:27:42;;;;;;;;;21.00;18.75;;;;;25.77;61.90;98917.28;5054155;28;45500;-61
2023/07/12 04:30:13;;;;;;;;;20.75;17.00;;;;;25.75;61.94;98905.78;5050029;28;46523;-61
2023/07/12 04:32:39;;;;;;;;;20.00;16.60;;;;;25.73;62.41;98914.91;5054594;28;45542;-62
2023/07/12 04:35:05;;;;;;;;;17.75;17.75;;;;;25.72;62.43;98926.72;5050303;28;45517;-61
2023/07/12 04:37:31;;;;;;;;;18.75;14.75;;;;;25.75;62.16;98927.41;5053858;28;45409;-61
2023/07/12 04:39:56;;;;;;;;;18.75;16.50;;;;;25.76;62.19;98929.94;5052536;28;45465;-62
2023/07/12 04:42:22;;;;;;;;;21.25;14.75;;;;;25.82;62.16;98925.72;5054597;28;45342;-61
2023/07/12 04:44:47;;;;;;;;;21.75;19.50;;;;;25.84;61.71;98918.31;5052805;28;45405;-61
2023/07/12 04:47:14;;;;;;;;;20.75;16.00;;;;;25.85;61.79;98923.56;5052879;28;45403;-62
2023/07/12 04:49:40;;;;;;;;;19.25;15.75;;;;;25.84;61.95;98921.84;5051753;28;45534;-61
2023/07/12 04:52:05;;;;;;;;;16.00;14.25;;;;;25.84;61.71;98926.41;5054727;28;45519;-61
2023/07/12 04:54:34;;;;;;;;;17.50;14.00;;;;;25.86;61.48;98935.19;5052595;28;45533;-61
2023/07/12 04:57:00;;;;;;;;;16.50;14.25;;;;;25.89;61.17;98933.03;5049785;28;45669;-61
2023/07/12 04:59:25;;;;;;;;;17.00;15.00;;;;;25.92;61.22;98927.31;5052324;28;45716;-62
2023/07/12 05:01:51;;;;;;;;;15.50;14.50;;;;;25.97;60.77;98927.66;5053821;28;45410;-61
2023/07/12 05:04:17;;;;;;;;;16.00;15.50;;;;;25.94;60.71;98932.53;5049440;28;45512;-62
2023/07/12 05:06:42;;;;;;;;;16.50;15.50;;;;;25.93;60.63;98928.16;5052180;28;45561;-61
2023/07/12 05:09:07;;;;;;;;;20.75;14.00;;;;;25.95;60.65;98939.63;5049658;28;46270;-62
2023/07/12 05:11:33;;;;;;;;;15.25;14.25;;;;;25.97;60.51;98943.88;5051791;28;45468;-62
2023/07/12 05:13:58;;;;;;;;;20.25;15.50;;;;;25.93;61.72;98956.00;5013913;28;45389;-62
2023/07/12 05:16:24;;;;;;;;;18.25;17.75;;;;;25.79;60.95;98961.19;5053965;28;45328;-61
2023/07/12 05:18:49;;;;;;;;;24.50;18.00;;;;;25.62;61.44;98966.50;5049974;28;46410;-61
2023/07/12 05:21:15;;;;;;;;;23.00;17.00;;;;;25.48;62.17;98969.75;5052030;28;45471;-61
2023/07/12 05:23:41;;;;;;;;;19.00;17.00;;;;;25.34;63.79;98971.19;5049904;28;45510;-61
2023/07/12 05:26:07;;;;;;;;;18.25;16.25;;;;;25.24;63.96;98981.25;5049035;28;45550;-61
2023/07/12 05:28:35;;;;;;;;;18.50;16.75;;;;;25.18;64.32;98994.50;5052140;28;46194;-61
2023/07/12 05:31:08;;;;;;;;;17.60;15.40;;;;;25.12;64.04;99001.41;5051610;28;45441;-61
2023/07/12 05:33:34;;;;;;;;;18.00;14.25;;;;;25.08;64.38;99008.09;5050159;28;45546;-61
2023/07/12 05:36:01;;;;;;;;;19.75;15.00;;;;;25.03;64.87;99008.56;5052542;28;45567;-61
2023/07/12 05:38:27;;;;;;;;;21.00;16.00;;;;;24.99;64.39;99004.47;5050451;28;46223;-65
2023/07/12 05:40:53;;;;;;;;;18.75;14.25;;;;;25.00;65.33;99005.31;5053861;28;45327;-65
2023/07/12 05:43:23;;;;;;;;;24.00;17.75;;;;;25.02;64.43;99012.25;5014931;28;45667;-65
2023/07/12 05:45:48;;;;;;;;;15.75;14.25;;;;;25.03;64.33;99015.81;5047280;28;45919;-66
2023/07/12 05:48:14;;;;;;;;;17.50;17.00;;;;;25.02;64.75;99014.94;5050758;28;45534;-65
2023/07/12 05:50:39;;;;;;;;;20.50;19.25;;;;;25.04;65.17;99007.56;5049958;28;45520;-65
2023/07/12 05:53:04;;;;;;;;;19.50;17.00;;;;;25.09;65.52;99015.19;5051105;28;45805;-65
2023/07/12 05:55:31;;;;;;;;;20.50;17.50;;;;;25.12;64.09;99016.72;5051072;28;45417;-65
2023/07/12 05:57:57;;;;;;;;;16.75;16.25;;;;;25.16;64.83;99027.03;5033181;28;46655;-65
2023/07/12 06:00:22;;;;;;;;;18.00;16.50;;;;;25.18;64.86;99019.63;5049196;28;45389;-65
2023/07/12 06:02:48;;;;;;;;;17.00;15.25;;;;;25.20;64.67;99023.03;5052721;28;45473;-66
2023/07/12 06:05:13;;;;;;;;;19.00;15.25;;;;;25.27;64.32;99024.09;5043702;28;45389;-65
2023/07/12 06:07:38;;;;;;;;;20.00;16.75;;;;;25.29;64.26;99023.97;5053028;28;46311;-65
2023/07/12 06:10:04;;;;;;;;;19.25;14.75;;;;;25.32;64.27;99026.31;5028351;28;45473;-68
2023/07/12 06:12:30;;;;;;;;;18.00;18.00;;;;;25.34;64.03;99021.59;5044379;28;45389;-66
2023/07/12 06:14:55;;;;;;;;;19.50;17.50;;;;;25.35;63.94;99024.16;5044891;28;45622;-67
2023/07/12 06:17:20;;;;;;;;;13.50;12.75;;;;;25.35;63.64;99026.00;5052600;28;45457;-67
2023/07/12 06:19:46;;;;;;;;;20.50;16.00;;;;;25.38;63.42;99026.53;5046197;28;45786;-67
2023/07/12 06:22:11;;;;;;;;;16.00;14.50;;;;;25.45;63.37;99031.31;5052803;28;45389;-67
2023/07/12 06:24:36;;;;;;;;;14.75;14.50;;;;;25.49;63.17;99025.44;5046636;28;45558;-67
2023/07/12 06:27:02;;;;;;;;;18.00;15.50;;;;;25.54;62.87;99028.50;5058199;28;45700;-67
2023/07/12 06:29:29;;;;;;;;;15.75;14.75;;;;;25.57;62.53;99028.19;5045412;28;45503;-67
2023/07/12 06:31:54;;;;;;;;;14.50;12.50;;;;;25.62;62.01;99041.25;5053336;28;45503;-67
2023/07/12 06:34:20;;;;;;;;;19.00;16.00;;;;;25.67;62.08;99036.22;5046746;28;45491;-67
2023/07/12 06:36:45;;;;;;;;;15.75;14.75;;;;;25.73;61.26;99033.72;5052089;28;45622;-67
2023/07/12 06:39:10;;;;;;;;;14.00;14.00;;;;;25.82;61.19;99037.31;5049551;28;45447;-66
2023/07/12 06:41:36;;;;;;;;;19.50;16.50;;;;;25.91;61.66;99036.38;5052418;28;45471;-67
2023/07/12 06:44:01;;;;;;;;;19.50;14.25;;;;;26.03;61.21;99039.63;5046447;28;45510;-66
2023/07/12 06:46:27;;;;;;;;;20.75;19.00;;;;;26.14;61.97;99030.41;5051744;28;46099;-66
2023/07/12 06:48:52;;;;;;;;;16.50;14.50;;;;;26.20;60.75;99032.44;5046845;28;45464;-68
2023/07/12 06:51:17;;;;;;;;;16.00;14.00;;;;;26.27;60.55;99028.94;5033997;28;45498;-67
2023/07/12 06:53:43;;;;;;;;;17.00;13.50;;;;;26.37;60.01;99026.13;5049077;28;45477;-69
2023/07/12 06:56:08;;;;;;;;;17.50;13.75;;;;;26.47;60.06;99023.28;5058469;28;46755;-66
2023/07/12 06:58:34;;;;;;;;;14.75;13.00;;;;;26.57;59.54;99023.97;5030176;28;45510;-67
2023/07/12 07:00:59;;;;;;;;;16.75;13.50;;;;;26.63;58.97;99020.63;5047892;28;45404;-68
2023/07/12 07:03:25;;;;;;;;;13.50;11.25;;;;;26.66;58.58;99025.69;5049574;28;45624;-66
2023/07/12 07:05:51;;;;;;;;;14.60;13.00;;;;;26.65;58.28;99027.53;5051937;28;47049;-68
2023/07/12 07:08:19;;;;;;;;;14.75;12.75;;;;;26.65;58.37;99032.09;5026070;28;45605;-67
2023/07/12 07:10:49;;;;;;;;;14.00;12.20;;;;;26.64;57.98;99023.16;5048311;28;45425;-68
2023/07/12 07:13:15;;;;;;;;;19.00;14.40;;;;;26.64;57.41;99020.47;5048292;28;45355;-67
2023/07/12 07:15:40;;;;;;;;;13.75;13.00;;;;;26.65;57.82;99021.28;5033876;28;46983;-67
2023/07/12 07:18:07;;;;;;;;;17.50;15.00;;;;;26.69;58.32;99025.34;5048860;28;45525;-68
2023/07/12 07:20:33;;;;;;;;;15.80;13.60;;;;;26.75;58.15;99022.84;5047490;28;45447;-68
2023/07/12 07:22:59;;;;;;;;;13.25;10.00;;;;;26.83;57.70;99024.69;5050593;28;45389;-67
2023/07/12 07:25:26;;;;;;;;;12.50;11.00;;;;;26.89;57.31;99020.47;5048203;28;46138;-68
2023/07/12 07:27:52;;;;;;;;;18.00;14.40;;;;;26.95;57.32;99026.09;5051939;28;45361;-67
2023/07/12 07:30:17;;;;;;;;;17.50;14.00;;;;;27.00;57.21;99025.59;5049556;28;45400;-67
2023/07/12 07:32:44;;;;;;;;;12.25;10.50;;;;;26.97;56.53;99023.25;5052020;28;45625;-68
2023/07/12 07:35:11;;;;;;;;;16.20;13.60;;;;;26.95;56.37;99020.69;5046777;28;46601;-67
2023/07/12 07:37:37;;;;;;;;;10.40;8.60;;;;;26.96;56.41;99029.66;5052748;28;45468;-67
2023/07/12 07:40:03;;;;;;;;;14.75;12.75;;;;;26.95;56.38;99033.38;5047327;28;45472;-67
2023/07/12 07:42:28;;;;;;;;;16.25;13.75;;;;;26.92;56.88;99041.78;5051774;28;45403;-68
2023/07/12 07:44:54;;;;;;;;;16.25;12.75;;;;;26.92;56.80;99025.56;5046961;28;46544;-67
2023/07/12 07:47:19;;;;;;;;;16.00;14.00;;;;;26.91;56.38;99022.00;5049989;28;45455;-67
2023/07/12 07:49:45;;;;;;;;;11.50;9.25;;;;;26.93;56.73;99017.28;5049446;28;45412;-67
2023/07/12 07:52:10;;;;;;;;;11.00;11.00;;;;;26.95;56.54;99019.84;5051508;28;45421;-68
2023/07/12 07:54:37;;;;;;;;;18.75;15.00;;;;;26.94;56.79;99024.41;5050587;28;46573;-71
2023/07/12 07:57:03;;;;;;;;;16.40;14.40;;;;;26.96;56.62;99016.97;5052344;28;45361;-73
2023/07/12 07:59:28;;;;;;;;;20.75;14.00;;;;;26.97;56.58;99023.25;5051595;28;45512;-74
2023/07/12 08:01:54;;;;;;;;;16.75;14.00;;;;;26.99;56.62;99034.72;5052683;28;45382;-75
2023/07/12 08:04:19;;;;;;;;;15.50;13.50;;;;;26.97;56.49;99031.34;5048687;28;46428;-77
2023/07/12 08:06:45;;;;;;;;;12.25;11.00;;;;;26.94;56.54;99031.69;5034887;28;45390;-76
2023/07/12 08:09:10;;;;;;;;;14.25;13.00;;;;;26.92;56.47;99029.13;5049252;28;45472;-74
2023/07/12 08:11:35;;;;;;;;;15.75;12.75;;;;;26.90;56.91;99016.75;5053270;28;45444;-75
2023/07/12 08:14:01;;;;;;;;;17.25;14.25;;;;;26.92;56.71;99009.31;5036333;28;45427;-74
2023/07/12 08:16:29;;;;;;;;;7.20;4.60;;;;;26.98;56.70;99008.69;5052843;28;45420;-74
2023/07/12 08:18:55;;;;;;;;;16.25;12.00;;;;;27.00;56.59;99003.94;5047569;28;45424;-74
2023/07/12 08:21:21;;;;;;;;;19.50;16.50;;;;;27.03;56.56;99003.59;5055999;28;45553;-74
2023/07/12 08:23:47;;;;;;;;;10.00;10.00;;;;;27.06;56.85;99003.28;5055662;28;45360;-74
2023/07/12 08:26:15;;;;;;;;;14.75;13.25;;;;;27.09;56.58;99006.50;5055586;28;45376;-74
2023/07/12 08:28:40;;;;;;;;;18.50;15.00;;;;;27.12;56.39;98999.06;5042112;28;45453;-75
2023/07/12 08:31:05;;;;;;;;;16.75;11.75;;;;;27.17;56.69;98989.38;5052988;28;45372;-73
2023/07/12 08:33:31;;;;;;;;;16.25;12.75;;;;;27.23;56.11;98994.13;5056175;28;45647;-74
2023/07/12 08:35:56;;;;;;;;;14.00;11.00;;;;;27.30;55.95;98997.84;5056023;28;45377;-74
2023/07/12 08:38:21;;;;;;;;;16.75;14.25;;;;;27.34;55.71;98988.34;5038535;28;45458;-75
2023/07/12 08:40:50;;;;;;;;;14.25;14.00;;;;;27.45;56.03;99003.41;5055902;28;45482;-74
2023/07/12 08:43:21;;;;;;;;;15.00;12.50;;;;;27.54;55.13;98988.00;5055332;28;45573;-75
2023/07/12 08:45:48;;;;;;;;;17.20;14.40;;;;;27.60;54.61;99001.72;5055763;28;45468;-75
2023/07/12 08:48:22;;;;;;;;;12.80;11.60;;;;;27.68;54.22;98992.72;5037407;28;45483;-74
2023/07/12 08:50:49;;;;;;;;;16.25;12.25;;;;;27.74;54.32;98995.59;5055622;28;45444;-74
2023/07/12 08:53:22;;;;;;;;;11.20;10.60;;;;;27.80;53.73;98991.34;5055496;28;46370;-74
2023/07/12 08:55:49;;;;;;;;;13.20;11.60;;;;;27.85;53.77;98985.38;5055447;28;45468;-74
2023/07/12 08:58:34;;;;;;;;;10.00;9.20;;;;;27.89;53.56;98971.31;5055777;28;45415;-74
2023/07/12 09:01:15;;;;;;;;;14.50;10.50;;;;;27.94;53.71;98978.94;5026309;28;45426;-74
2023/07/12 09:03:40;;;;;;;;;17.25;14.25;;;;;27.98;53.20;98975.72;5054943;28;45619;-74
2023/07/12 09:06:14;;;;;;;;;14.25;13.25;;;;;28.01;53.32;98978.03;5037536;28;45399;-74
2023/07/12 09:08:44;;;;;;;;;12.60;10.40;;;;;28.05;52.62;98990.22;5055806;28;45322;-74
2023/07/12 09:11:16;;;;;;;;;11.75;10.75;;;;;28.10;53.31;98981.56;5055656;28;45557;-75
2023/07/12 09:13:42;;;;;;;;;16.60;13.60;;;;;28.15;53.09;98981.91;5055345;28;46462;-74
2023/07/12 09:16:34;;;;;;;;;15.50;13.75;;;;;28.19;53.04;98985.94;5054974;28;45504;-75
2023/07/12 09:19:23;;;;;;;;;14.80;13.20;;;;;28.24;52.47;98980.00;5039900;28;45350;-75
2023/07/12 09:21:53;;;;;;;;;12.20;10.80;;;;;28.28;52.48;98971.34;5054570;28;45492;-73
2023/07/12 09:24:27;;;;;;;;;13.00;12.00;;;;;28.31;51.89;98960.16;5054938;28;46501;-73
2023/07/12 09:27:13;;;;;;;;;15.60;12.80;;;;;28.37;51.84;98959.41;5055512;28;45356;-74
2023/07/12 09:29:38;;;;;;;;;13.20;9.40;;;;;28.45;52.13;98964.81;5055610;28;45404;-75
2023/07/12 09:32:15;;;;;;;;;18.50;14.25;;;;;28.51;51.55;98957.81;5055393;28;45364;-74
2023/07/12 09:34:41;;;;;;;;;8.80;5.00;;;;;28.57;51.60;98956.25;5055506;28;45665;-75
2023/07/12 09:37:19;;;;;;;;;17.50;13.50;;;;;28.64;51.16;98951.81;5055360;28;45480;-75
2023/07/12 09:39:58;;;;;;;;;12.40;12.40;;;;;28.71;50.57;98964.44;5055493;28;45465;-74
2023/07/12 09:42:28;;;;;;;;;25.75;16.25;;;;;28.75;50.94;98946.78;5036830;28;45380;-74
2023/07/12 09:44:53;;;;;;;;;12.75;10.25;;;;;28.82;50.25;98938.81;5070151;28;45451;-74
2023/07/12 09:47:40;;;;;;;;;17.25;14.00;;;;;28.93;50.07;98937.53;5054969;28;45493;-73
2023/07/12 09:50:22;;;;;;;;;13.60;12.60;;;;;28.93;50.33;98927.50;5055127;28;45391;-75
2023/07/12 09:52:57;;;;;;;;;9.00;7.00;;;;;28.96;50.03;98929.88;5043209;28;45478;-74
2023/07/12 09:55:35;;;;;;;;;18.75;13.25;;;;;29.02;49.57;98937.25;5054845;28;45505;-74
2023/07/12 09:58:35;;;;;;;;;17.40;13.20;;;;;29.01;49.50;98930.13;5054744;28;45584;-74
2023/07/12 10:01:35;;;;;;;;;15.20;12.20;;;;;29.00;49.47;98931.16;5025931;28;45404;-75
2023/07/12 10:04:16;;;;;;;;;14.75;13.75;;;;;29.03;49.72;98935.38;5001800;28;45695;-74
2023/07/12 10:06:48;;;;;;;;;13.80;13.00;;;;;29.03;49.96;98938.94;5050864;28;45792;-74
2023/07/12 10:09:29;;;;;;;;;15.00;12.60;;;;;29.07;49.62;98934.00;5054916;28;45497;-73
2023/07/12 10:12:09;;;;;;;;;18.25;13.50;;;;;29.12;49.89;98940.56;5054557;28;45504;-73
2023/07/12 10:14:40;;;;;;;;;16.00;11.50;;;;;29.17;49.60;98931.84;5054653;28;45501;-74
2023/07/12 10:17:16;;;;;;;;;9.50;9.00;;;;;29.21;49.80;98927.75;5053813;28;46496;-75
2023/07/12 10:19:41;;;;;;;;;14.60;12.40;;;;;29.28;49.68;98931.41;5054536;28;45460;-74
2023/07/12 10:22:20;;;;;;;;;14.00;11.00;;;;;29.35;49.47;98917.91;5061432;28;45441;-74
2023/07/12 10:24:50;;;;;;;;;18.00;13.75;;;;;29.37;48.66;98924.84;5033378;28;45526;-74
2023/07/12 10:27:20;;;;;;;;;13.75;10.50;;;;;29.41;48.84;98931.66;5045523;28;46489;-77
2023/07/12 10:30:21;;;;;;;;;16.00;15.40;;;;;29.41;48.86;98920.78;5054287;28;45459;-73
2023/07/12 10:32:57;;;;;;;;;15.20;11.60;;;;;29.45;48.90;98903.09;5019616;28;45380;-75
2023/07/12 10:35:27;;;;;;;;;14.50;12.75;;;;;29.49;49.27;98906.28;5053268;28;45472;-74
2023/07/12 10:38:01;;;;;;;;;15.50;12.75;;;;;29.52;48.88;98895.84;5053977;28;45611;-74
2023/07/12 10:40:47;;;;;;;;;17.40;11.00;;;;;29.59;48.97;98889.69;5036495;28;45414;-75
2023/07/12 10:43:31;;;;;;;;;13.25;10.00;;;;;29.67;48.72;98886.84;5043100;28;45393;-74
2023/07/12 10:46:05;;;;;;;;;16.00;12.25;;;;;29.76;49.10;98881.13;5053663;28;45469;-74
2023/07/12 10:48:31;;;;;;;;;16.75;12.00;;;;;29.83;48.64;98882.03;5053793;28;45411;-75
2023/07/12 10:51:18;;;;;;;;;13.20;11.80;;;;;29.90;48.16;98875.84;5054147;28;45490;-74
2023/07/12 10:53:49;;;;;;;;;13.00;10.60;;;;;29.96;47.45;98872.38;5036292;28;45736;-74
2023/07/12 10:56:25;;;;;;;;;12.25;10.00;;;;;29.99;47.73;98883.75;5036290;28;45479;-76
2023/07/12 10:58:55;;;;;;;;;14.75;12.50;;;;;30.02;46.92;98868.91;5053456;28;46128;-74
2023/07/12 11:01:45;;;;;;;;;14.60;12.20;;;;;30.05;47.06;98863.94;5053790;28;45441;-75
2023/07/12 11:04:24;;;;;;;;;16.80;12.00;;;;;30.05;46.73;98857.66;5053941;28;45477;-74
2023/07/12 11:06:58;;;;;;;;;13.00;11.75;;;;;30.06;47.34;98852.03;5053803;28;45374;-74
2023/07/12 11:09:26;;;;;;;;;10.00;9.75;;;;;30.15;47.02;98850.06;5053456;28;47176;-75
2023/07/12 11:12:07;;;;;;;;;11.00;10.20;;;;;30.18;47.02;98857.81;5035620;28;45496;-74
2023/07/12 11:14:38;;;;;;;;;8.50;7.00;;;;;30.22;46.77;98856.38;5053873;28;45459;-75
2023/07/12 11:17:06;;;;;;;;;14.50;12.25;;;;;30.27;46.01;98853.09;5053438;28;45363;-75
2023/07/12 11:19:41;;;;;;;;;12.60;12.20;;;;;30.29;46.80;98845.59;5053739;28;45636;-74
2023/07/12 11:22:23;;;;;;;;;12.60;11.60;;;;;30.32;47.41;98828.88;5053812;28;45349;-75
2023/07/12 11:25:00;;;;;;;;;13.50;12.00;;;;;30.36;47.52;98836.44;5053708;28;45406;-75
2023/07/12 11:27:26;;;;;;;;;14.25;11.75;;;;;30.44;46.82;98824.59;5053602;28;45548;-74